createdAt,value
2018-10-07T00:00:21.945Z,100151.25
2018-10-07T00:00:53.045Z,100151.22
2018-10-07T00:01:24.150Z,100148.58
2018-10-07T00:01:55.283Z,100154.64
2018-10-07T00:02:26.403Z,100151.61
2018-10-07T00:02:57.513Z,100154.64
2018-10-07T00:03:28.628Z,100155.94
2018-10-07T00:03:59.734Z,100145.55
2018-10-07T00:04:30.872Z,100150.34
2018-10-07T00:05:01.982Z,100147.30
2018-10-07T00:05:33.183Z,100148.19
2018-10-07T00:06:04.287Z,100144.31
2018-10-07T00:06:35.409Z,100143.44
2018-10-07T00:07:06.517Z,100145.20
2018-10-07T00:07:37.625Z,100140.44
2018-10-07T00:08:08.757Z,100143.47
2018-10-07T00:08:39.865Z,100142.20
2018-10-07T00:09:10.984Z,100140.89
2018-10-07T00:09:42.099Z,100140.89
2018-10-07T00:10:13.226Z,100137.90
2018-10-07T00:10:44.389Z,100137.05
2018-10-07T00:11:15.547Z,100138.78
2018-10-07T00:11:46.653Z,100139.66
2018-10-07T00:12:17.785Z,100139.23
2018-10-07T00:12:48.886Z,100138.87
2018-10-07T00:13:20.014Z,100142.43
2018-10-07T00:13:51.110Z,100139.89
2018-10-07T00:14:22.214Z,100139.98
2018-10-07T00:14:53.337Z,100143.08
2018-10-07T00:15:24.463Z,100136.66
2018-10-07T00:15:55.554Z,100143.20
2018-10-07T00:16:26.661Z,100135.42
2018-10-07T00:16:57.788Z,100140.20
2018-10-07T00:17:28.945Z,100133.75
2018-10-07T00:18:00.057Z,100138.17
2018-10-07T00:18:31.195Z,100140.80
2018-10-07T00:19:02.300Z,100138.27
2018-10-07T00:19:33.421Z,100130.12
2018-10-07T00:20:04.517Z,100137.50
2018-10-07T00:20:35.614Z,100136.68
2018-10-07T00:21:06.733Z,100138.46
2018-10-07T00:21:37.854Z,100134.98
2018-10-07T00:22:09.042Z,100141.05
2018-10-07T00:22:40.155Z,100137.98
2018-10-07T00:23:11.268Z,100135.83
2018-10-07T00:23:42.387Z,100137.19
2018-10-07T00:24:13.491Z,100135.50
2018-10-07T00:24:44.585Z,100135.06
2018-10-07T00:25:15.686Z,100140.73
2018-10-07T00:25:46.804Z,100138.16
2018-10-07T00:26:17.957Z,100133.91
2018-10-07T00:26:49.066Z,100133.56
2018-10-07T00:27:20.194Z,100137.12
2018-10-07T00:27:51.299Z,100134.56
2018-10-07T00:28:22.402Z,100137.20
2018-10-07T00:28:53.502Z,100135.90
2018-10-07T00:29:24.623Z,100133.72
2018-10-07T00:29:55.727Z,100136.38
2018-10-07T00:30:26.827Z,100134.66
2018-10-07T00:30:57.960Z,100135.50
2018-10-07T00:31:29.115Z,100132.02
2018-10-07T00:32:00.251Z,100138.53
2018-10-07T00:32:31.403Z,100132.87
2018-10-07T00:33:02.539Z,100132.48
2018-10-07T00:33:33.637Z,100136.38
2018-10-07T00:34:04.750Z,100134.22
2018-10-07T00:34:35.854Z,100137.24
2018-10-07T00:35:06.961Z,100140.30
2018-10-07T00:35:38.063Z,100135.55
2018-10-07T00:36:09.164Z,100131.23
2018-10-07T00:36:40.266Z,100130.74
2018-10-07T00:37:11.436Z,100129.45
2018-10-07T00:37:42.551Z,100130.35
2018-10-07T00:38:13.663Z,100129.06
2018-10-07T00:38:44.763Z,100128.24
2018-10-07T00:39:15.884Z,100130.42
2018-10-07T00:39:46.993Z,100131.31
2018-10-07T00:40:18.125Z,100128.72
2018-10-07T00:40:49.225Z,100127.91
2018-10-07T00:41:20.335Z,100126.62
2018-10-07T00:41:52.097Z,100130.49
2018-10-07T00:42:23.275Z,100125.74
2018-10-07T00:42:54.422Z,100123.59
2018-10-07T00:43:25.534Z,100126.19
2018-10-07T00:43:56.646Z,100124.05
2018-10-07T00:44:27.789Z,100121.44
2018-10-07T00:44:58.903Z,100123.59
2018-10-07T00:45:30.090Z,100120.52
2018-10-07T00:46:01.178Z,100120.06
2018-10-07T00:46:32.310Z,100122.69
2018-10-07T00:47:03.401Z,100123.55
2018-10-07T00:47:34.567Z,100118.39
2018-10-07T00:48:05.684Z,100120.09
2018-10-07T00:48:36.806Z,100115.34
2018-10-07T00:49:07.933Z,100112.77
2018-10-07T00:49:39.043Z,100115.80
2018-10-07T00:50:10.211Z,100116.19
2018-10-07T00:50:41.426Z,100113.19
2018-10-07T00:51:12.531Z,100110.59
2018-10-07T00:51:43.625Z,100111.44
2018-10-07T00:52:14.730Z,100107.97
2018-10-07T00:52:45.907Z,100112.28
2018-10-07T00:53:17.090Z,100105.78
2018-10-07T00:53:48.199Z,100112.28
2018-10-07T00:54:19.361Z,100105.39
2018-10-07T00:54:50.469Z,100115.37
2018-10-07T00:55:21.639Z,100110.16
2018-10-07T00:55:52.778Z,100105.38
2018-10-07T00:56:23.898Z,100109.71
2018-10-07T00:56:55.028Z,100108.02
2018-10-07T00:57:26.141Z,100108.88
2018-10-07T00:57:57.252Z,100108.88
2018-10-07T00:58:28.413Z,100105.44
2018-10-07T00:58:59.547Z,100109.77
2018-10-07T00:59:30.692Z,100106.28
2018-10-07T01:00:01.814Z,100111.48
2018-10-07T01:00:32.917Z,100110.61
2018-10-07T01:01:04.041Z,100103.69
2018-10-07T01:01:35.151Z,100108.49
2018-10-07T01:02:06.321Z,100107.61
2018-10-07T01:02:37.476Z,100105.89
2018-10-07T01:03:08.583Z,100103.73
2018-10-07T01:03:39.701Z,100105.48
2018-10-07T01:04:10.821Z,100105.97
2018-10-07T01:04:41.913Z,100102.94
2018-10-07T01:05:13.011Z,100102.45
2018-10-07T01:05:44.109Z,100104.21
2018-10-07T01:06:15.209Z,100104.19
2018-10-07T01:06:46.305Z,100098.55
2018-10-07T01:07:17.463Z,100101.16
2018-10-07T01:07:48.593Z,100105.06
2018-10-07T01:08:19.711Z,100099.44
2018-10-07T01:08:50.812Z,100098.16
2018-10-07T01:09:21.903Z,100100.34
2018-10-07T01:09:53.038Z,100101.61
2018-10-07T01:10:24.159Z,100095.95
2018-10-07T01:10:55.307Z,100097.26
2018-10-07T01:11:26.406Z,100098.55
2018-10-07T01:11:57.520Z,100094.27
2018-10-07T01:12:28.661Z,100099.44
2018-10-07T01:12:59.771Z,100097.28
2018-10-07T01:13:30.877Z,100094.66
2018-10-07T01:14:02.008Z,100094.27
2018-10-07T01:14:33.115Z,100095.56
2018-10-07T01:15:04.225Z,100097.31
2018-10-07T01:15:35.339Z,100091.23
2018-10-07T01:16:06.461Z,100089.51
2018-10-07T01:16:37.569Z,100095.14
2018-10-07T01:17:08.707Z,100090.81
2018-10-07T01:17:39.802Z,100092.53
2018-10-07T01:18:10.922Z,100088.66
2018-10-07T01:18:42.020Z,100087.84
2018-10-07T01:19:13.169Z,100086.98
2018-10-07T01:19:44.266Z,100086.55
2018-10-07T01:20:15.382Z,100086.61
2018-10-07T01:20:46.484Z,100087.90
2018-10-07T01:21:17.584Z,100085.33
2018-10-07T01:21:48.722Z,100084.50
2018-10-07T01:22:19.830Z,100084.50
2018-10-07T01:22:50.949Z,100078.47
2018-10-07T01:23:22.125Z,100075.02
2018-10-07T01:23:53.223Z,100075.88
2018-10-07T01:24:24.340Z,100079.77
2018-10-07T01:24:55.433Z,100075.92
2018-10-07T01:25:26.559Z,100077.22
2018-10-07T01:25:57.693Z,100080.69
2018-10-07T01:26:28.821Z,100078.97
2018-10-07T01:26:59.937Z,100075.52
2018-10-07T01:27:31.058Z,100076.80
2018-10-07T01:28:02.150Z,100077.67
2018-10-07T01:28:33.321Z,100073.34
2018-10-07T01:29:04.426Z,100075.06
2018-10-07T01:29:35.715Z,100075.55
2018-10-07T01:30:06.822Z,100072.96
2018-10-07T01:30:37.962Z,100073.41
2018-10-07T01:31:09.079Z,100077.36
2018-10-07T01:31:40.185Z,100079.09
2018-10-07T01:32:11.291Z,100084.34
2018-10-07T01:32:42.396Z,100076.56
2018-10-07T01:33:13.524Z,100078.77
2018-10-07T01:33:44.682Z,100071.84
2018-10-07T01:34:15.789Z,100071.37
2018-10-07T01:34:46.898Z,100076.55
2018-10-07T01:35:18.019Z,100076.55
2018-10-07T01:35:49.188Z,100075.70
2018-10-07T01:36:20.305Z,100075.75
2018-10-07T01:36:51.441Z,100079.19
2018-10-07T01:37:22.567Z,100075.73
2018-10-07T01:37:53.687Z,100076.64
2018-10-07T01:38:24.827Z,100074.05
2018-10-07T01:38:55.985Z,100075.81
2018-10-07T01:39:27.128Z,100083.60
2018-10-07T01:39:58.278Z,100079.30
2018-10-07T01:40:29.427Z,100080.17
2018-10-07T01:41:00.553Z,100079.30
2018-10-07T01:41:31.680Z,100078.44
2018-10-07T01:42:02.824Z,100074.57
2018-10-07T01:42:33.945Z,100078.91
2018-10-07T01:43:05.105Z,100079.34
2018-10-07T01:43:36.254Z,100075.89
2018-10-07T01:44:07.365Z,100077.17
2018-10-07T01:44:38.474Z,100078.88
2018-10-07T01:45:09.593Z,100072.39
2018-10-07T01:45:40.773Z,100076.30
2018-10-07T01:46:11.953Z,100074.14
2018-10-07T01:46:43.088Z,100063.38
2018-10-07T01:47:14.227Z,100069.81
2018-10-07T01:47:45.385Z,100074.14
2018-10-07T01:48:16.505Z,100066.80
2018-10-07T01:48:47.637Z,100071.52
2018-10-07T01:49:18.764Z,100067.20
2018-10-07T01:49:49.891Z,100064.61
2018-10-07T01:50:21.030Z,100072.38
2018-10-07T01:50:52.178Z,100070.20
2018-10-07T01:51:23.328Z,100065.86
2018-10-07T01:51:54.437Z,100064.55
2018-10-07T01:52:25.563Z,100066.66
2018-10-07T01:52:56.718Z,100056.67
2018-10-07T01:53:27.859Z,100067.95
2018-10-07T01:53:58.965Z,100065.30
2018-10-07T01:54:30.091Z,100060.53
2018-10-07T01:55:01.233Z,100066.11
2018-10-07T01:55:32.333Z,100060.89
2018-10-07T01:56:03.436Z,100063.02
2018-10-07T01:56:34.540Z,100063.02
2018-10-07T01:57:05.651Z,100064.73
2018-10-07T01:57:36.838Z,100059.55
2018-10-07T01:58:08.004Z,100056.97
2018-10-07T01:58:39.206Z,100062.59
2018-10-07T01:59:10.374Z,100064.34
2018-10-07T01:59:41.434Z,100061.32
2018-10-07T02:00:12.569Z,100061.79
2018-10-07T02:00:43.672Z,100058.34
2018-10-07T02:01:14.873Z,100057.92
2018-10-07T02:01:46.043Z,100059.22
2018-10-07T02:02:17.160Z,100058.78
2018-10-07T02:02:48.326Z,100055.79
2018-10-07T02:03:19.466Z,100060.10
2018-10-07T02:03:50.603Z,100065.35
2018-10-07T02:04:21.722Z,100064.05
2018-10-07T02:04:52.839Z,100061.00
2018-10-07T02:05:23.943Z,100062.33
2018-10-07T02:05:55.057Z,100058.84
2018-10-07T02:06:26.154Z,100059.30
2018-10-07T02:06:57.285Z,100069.23
2018-10-07T02:07:28.452Z,100064.04
2018-10-07T02:07:59.570Z,100065.37
2018-10-07T02:08:30.670Z,100063.65
2018-10-07T02:09:01.786Z,100065.80
2018-10-07T02:09:32.953Z,100063.63
2018-10-07T02:10:04.111Z,100065.34
2018-10-07T02:10:35.303Z,100065.78
2018-10-07T02:11:06.418Z,100059.25
2018-10-07T02:11:37.662Z,100060.56
2018-10-07T02:12:08.791Z,100061.86
2018-10-07T02:12:39.910Z,100058.38
2018-10-07T02:13:11.035Z,100061.86
2018-10-07T02:13:42.198Z,100064.48
2018-10-07T02:14:13.379Z,100062.75
2018-10-07T02:14:44.483Z,100059.30
2018-10-07T02:15:15.637Z,100061.89
2018-10-07T02:15:46.754Z,100064.94
2018-10-07T02:16:17.884Z,100063.64
2018-10-07T02:17:26.411Z,100061.89
2018-10-07T02:17:57.532Z,100061.47
2018-10-07T02:18:28.675Z,100058.02
2018-10-07T02:18:59.800Z,100057.97
2018-10-07T02:19:30.913Z,100056.25
2018-10-07T02:20:02.152Z,100055.41
2018-10-07T02:20:33.389Z,100056.67
2018-10-07T02:21:04.519Z,100053.20
2018-10-07T02:21:35.658Z,100053.61
2018-10-07T02:22:06.777Z,100051.86
2018-10-07T02:22:37.892Z,100051.86
2018-10-07T02:23:08.989Z,100050.56
2018-10-07T02:23:40.110Z,100051.41
2018-10-07T02:24:11.266Z,100054.88
2018-10-07T02:24:42.427Z,100051.01
2018-10-07T02:25:13.548Z,100052.33
2018-10-07T02:25:44.735Z,100051.48
2018-10-07T02:26:15.848Z,100048.45
2018-10-07T02:26:47.002Z,100048.91
2018-10-07T02:27:18.141Z,100050.63
2018-10-07T02:27:49.299Z,100059.30
2018-10-07T02:28:20.397Z,100049.36
2018-10-07T02:28:51.538Z,100054.55
2018-10-07T02:29:22.683Z,100054.14
2018-10-07T02:29:53.849Z,100059.80
2018-10-07T02:30:24.963Z,100058.06
2018-10-07T02:30:56.077Z,100058.48
2018-10-07T02:31:27.205Z,100055.02
2018-10-07T02:31:58.348Z,100060.22
2018-10-07T02:32:29.479Z,100054.17
2018-10-07T02:33:00.593Z,100056.81
2018-10-07T02:33:31.726Z,100053.77
2018-10-07T02:34:02.877Z,100059.80
2018-10-07T02:34:34.014Z,100056.34
2018-10-07T02:35:05.187Z,100062.86
2018-10-07T02:35:36.298Z,100053.77
2018-10-07T02:36:07.430Z,100057.66
2018-10-07T02:36:38.581Z,100055.91
2018-10-07T02:37:09.779Z,100053.73
2018-10-07T02:37:40.892Z,100051.59
2018-10-07T02:38:12.015Z,100053.75
2018-10-07T02:38:43.192Z,100062.36
2018-10-07T02:39:14.296Z,100053.27
2018-10-07T02:39:45.453Z,100056.32
2018-10-07T02:40:16.637Z,100052.85
2018-10-07T02:40:47.820Z,100050.67
2018-10-07T02:41:18.932Z,100056.75
2018-10-07T02:41:50.070Z,100047.23
2018-10-07T02:42:21.250Z,100047.64
2018-10-07T02:42:52.361Z,100050.72
2018-10-07T02:43:23.581Z,100043.83
2018-10-07T02:43:54.708Z,100049.89
2018-10-07T02:44:25.842Z,100051.61
2018-10-07T02:44:56.967Z,100049.03
2018-10-07T02:45:28.129Z,100049.48
2018-10-07T02:45:59.279Z,100049.06
2018-10-07T02:46:30.394Z,100044.31
2018-10-07T02:47:01.582Z,100047.78
2018-10-07T02:47:32.689Z,100047.36
2018-10-07T02:48:03.865Z,100052.10
2018-10-07T02:48:34.997Z,100044.78
2018-10-07T02:49:06.118Z,100050.84
2018-10-07T02:49:37.282Z,100044.34
2018-10-07T02:50:08.457Z,100050.84
2018-10-07T02:50:39.613Z,100045.66
2018-10-07T02:51:10.721Z,100046.48
2018-10-07T02:51:41.821Z,100044.71
2018-10-07T02:52:12.929Z,100043.84
2018-10-07T02:52:44.092Z,100044.72
2018-10-07T02:53:15.213Z,100048.59
2018-10-07T02:53:46.350Z,100041.23
2018-10-07T02:54:17.514Z,100038.62
2018-10-07T02:54:48.689Z,100037.30
2018-10-07T02:55:19.835Z,100039.88
2018-10-07T02:55:51.018Z,100036.44
2018-10-07T02:56:22.168Z,100038.16
2018-10-07T02:56:53.278Z,100039.45
2018-10-07T02:57:24.412Z,100040.30
2018-10-07T02:57:55.542Z,100036.84
2018-10-07T02:58:26.665Z,100038.14
2018-10-07T02:58:57.793Z,100037.70
2018-10-07T02:59:28.949Z,100045.06
2018-10-07T03:00:00.061Z,100038.11
2018-10-07T03:00:31.192Z,100040.28
2018-10-07T03:01:02.304Z,100034.21
2018-10-07T03:01:33.448Z,100036.84
2018-10-07T03:02:04.599Z,100033.81
2018-10-07T03:02:35.731Z,100035.98
2018-10-07T03:03:06.861Z,100037.30
2018-10-07T03:03:38.011Z,100034.25
2018-10-07T03:04:09.153Z,100036.85
2018-10-07T03:04:40.293Z,100041.17
2018-10-07T03:05:11.521Z,100038.58
2018-10-07T03:05:42.684Z,100042.93
2018-10-07T03:06:13.818Z,100037.30
2018-10-07T03:06:44.946Z,100039.02
2018-10-07T03:07:16.096Z,100035.55
2018-10-07T03:07:47.277Z,100034.25
2018-10-07T03:08:18.423Z,100036.85
2018-10-07T03:08:49.558Z,100033.83
2018-10-07T03:09:20.754Z,100033.38
2018-10-07T03:09:51.877Z,100031.66
2018-10-07T03:10:23.049Z,100031.66
2018-10-07T03:10:54.207Z,100028.62
2018-10-07T03:11:25.334Z,100027.36
2018-10-07T03:11:56.470Z,100030.83
2018-10-07T03:12:27.590Z,100025.62
2018-10-07T03:12:58.763Z,100031.72
2018-10-07T03:13:29.878Z,100030.02
2018-10-07T03:14:00.999Z,100031.80
2018-10-07T03:14:32.166Z,100033.52
2018-10-07T03:15:03.332Z,100027.88
2018-10-07T03:15:34.477Z,100035.25
2018-10-07T03:16:05.653Z,100032.64
2018-10-07T03:16:36.752Z,100037.84
2018-10-07T03:17:07.908Z,100034.38
2018-10-07T03:17:39.026Z,100034.38
2018-10-07T03:18:10.203Z,100030.94
2018-10-07T03:18:41.354Z,100037.86
2018-10-07T03:19:12.476Z,100036.98
2018-10-07T03:19:43.581Z,99999.50
2018-10-07T03:20:14.687Z,100030.47
2018-10-07T03:20:45.785Z,100032.64
2018-10-07T03:21:16.898Z,100026.99
2018-10-07T03:21:48.045Z,100025.72
2018-10-07T03:22:19.186Z,100029.62
2018-10-07T03:22:50.310Z,100023.14
2018-10-07T03:23:21.415Z,100024.86
2018-10-07T03:23:52.571Z,100025.31
2018-10-07T03:24:23.676Z,100027.48
2018-10-07T03:24:54.818Z,100023.15
2018-10-07T03:25:25.964Z,100024.93
2018-10-07T03:25:57.096Z,100024.91
2018-10-07T03:26:28.197Z,100020.62
2018-10-07T03:26:59.305Z,100029.28
2018-10-07T03:27:30.478Z,100023.69
2018-10-07T03:28:01.613Z,100027.58
2018-10-07T03:28:32.732Z,100021.58
2018-10-07T03:29:03.896Z,100027.22
2018-10-07T03:29:35.042Z,100026.81
2018-10-07T03:30:06.237Z,100026.81
2018-10-07T03:30:37.384Z,100024.63
2018-10-07T03:31:08.534Z,100017.74
2018-10-07T03:31:39.675Z,100018.14
2018-10-07T03:32:10.820Z,100018.57
2018-10-07T03:32:41.952Z,100015.53
2018-10-07T03:33:13.075Z,100019.42
2018-10-07T03:33:44.217Z,100024.58
2018-10-07T03:34:15.442Z,100018.08
2018-10-07T03:34:46.569Z,100020.28
2018-10-07T03:35:17.754Z,100020.72
2018-10-07T03:35:48.883Z,100021.16
2018-10-07T03:36:19.996Z,100023.32
2018-10-07T03:36:51.153Z,100025.06
2018-10-07T03:37:22.261Z,100022.94
2018-10-07T03:37:53.387Z,100021.62
2018-10-07T03:38:24.498Z,100025.98
2018-10-07T03:38:55.673Z,100021.66
2018-10-07T03:39:26.812Z,100016.91
2018-10-07T03:39:58.026Z,100022.09
2018-10-07T03:40:29.191Z,100023.39
2018-10-07T03:41:00.307Z,100022.09
2018-10-07T03:41:31.431Z,100020.81
2018-10-07T03:42:02.546Z,100020.84
2018-10-07T03:42:33.659Z,100019.55
2018-10-07T03:43:04.816Z,100021.69
2018-10-07T03:43:35.942Z,100017.39
2018-10-07T03:44:07.117Z,100018.25
2018-10-07T03:44:38.270Z,100016.98
2018-10-07T03:45:09.388Z,100016.58
2018-10-07T03:45:40.497Z,100016.14
2018-10-07T03:46:11.618Z,100016.14
2018-10-07T03:46:42.747Z,100013.57
2018-10-07T03:47:13.867Z,100018.33
2018-10-07T03:47:44.975Z,100013.62
2018-10-07T03:48:16.129Z,100015.77
2018-10-07T03:48:47.278Z,100015.33
2018-10-07T03:49:18.369Z,100016.61
2018-10-07T03:49:49.513Z,100018.36
2018-10-07T03:50:20.647Z,100013.14
2018-10-07T03:50:51.758Z,100017.91
2018-10-07T03:51:23.187Z,100009.27
2018-10-07T03:51:54.439Z,100012.71
2018-10-07T03:52:25.543Z,100012.71
2018-10-07T03:52:56.666Z,100011.42
2018-10-07T03:53:27.770Z,100014.88
2018-10-07T03:53:58.926Z,100008.83
2018-10-07T03:54:30.111Z,100020.08
2018-10-07T03:55:01.225Z,100011.41
2018-10-07T03:55:32.408Z,100010.56
2018-10-07T03:56:03.561Z,100018.78
2018-10-07T03:56:34.699Z,100011.44
2018-10-07T03:57:05.873Z,100011.44
2018-10-07T03:57:37.014Z,100018.36
2018-10-07T03:58:08.133Z,100016.21
2018-10-07T03:58:39.337Z,100009.70
2018-10-07T03:59:10.512Z,100014.02
2018-10-07T03:59:41.612Z,100015.77
2018-10-07T04:00:12.733Z,100018.36
2018-10-07T04:00:43.984Z,100016.19
2018-10-07T04:01:15.121Z,100013.16
2018-10-07T04:01:46.231Z,100015.32
2018-10-07T04:02:17.379Z,100015.32
2018-10-07T04:02:48.502Z,100014.89
2018-10-07T04:03:19.678Z,100016.63
2018-10-07T04:03:50.883Z,100015.33
2018-10-07T04:04:22.040Z,100017.92
2018-10-07T04:04:53.209Z,100014.91
2018-10-07T04:05:24.334Z,100014.51
2018-10-07T04:05:55.436Z,100011.48
2018-10-07T04:06:26.575Z,100016.22
2018-10-07T04:06:57.692Z,100018.84
2018-10-07T04:07:28.869Z,100021.00
2018-10-07T04:07:59.991Z,100011.49
2018-10-07T04:08:31.133Z,100014.54
2018-10-07T04:09:02.338Z,100015.86
2018-10-07T04:09:33.435Z,100015.84
2018-10-07T04:10:04.590Z,100012.86
2018-10-07T04:10:35.703Z,100013.25
2018-10-07T04:11:06.851Z,100011.55
2018-10-07T04:11:38.027Z,100008.95
2018-10-07T04:12:09.158Z,100011.55
2018-10-07T04:12:40.278Z,100012.84
2018-10-07T04:13:11.396Z,100010.25
2018-10-07T04:13:42.575Z,100014.16
2018-10-07T04:14:13.679Z,100010.23
2018-10-07T04:14:44.808Z,100008.94
2018-10-07T04:15:15.917Z,100014.11
2018-10-07T04:15:47.031Z,100009.77
2018-10-07T04:16:18.160Z,100006.75
2018-10-07T04:16:49.334Z,100010.64
2018-10-07T04:17:20.487Z,100010.22
2018-10-07T04:17:51.644Z,100008.08
2018-10-07T04:18:22.806Z,100009.78
2018-10-07T04:18:53.919Z,100010.23
2018-10-07T04:19:25.031Z,100008.08
2018-10-07T04:19:56.197Z,100005.07
2018-10-07T04:20:27.346Z,100008.51
2018-10-07T04:20:58.447Z,100001.16
2018-10-07T04:21:29.597Z,100006.77
2018-10-07T04:22:00.752Z,100005.47
2018-10-07T04:22:31.884Z,100009.77
2018-10-07T04:23:03.069Z,100009.33
2018-10-07T04:23:34.195Z,100005.00
2018-10-07T04:24:05.305Z,100012.36
2018-10-07T04:24:36.419Z,100008.94
2018-10-07T04:25:07.549Z,100007.23
2018-10-07T04:25:38.696Z,100007.22
2018-10-07T04:26:09.819Z,100005.48
2018-10-07T04:26:40.984Z,100010.61
2018-10-07T04:27:12.159Z,100006.25
2018-10-07T04:27:43.271Z,100005.38
2018-10-07T04:28:14.373Z,100006.67
2018-10-07T04:28:45.518Z,100007.13
2018-10-07T04:29:16.660Z,100004.13
2018-10-07T04:29:47.769Z,100002.45
2018-10-07T04:30:18.949Z,100002.87
2018-10-07T04:30:50.060Z,100012.78
2018-10-07T04:31:21.171Z,100006.67
2018-10-07T04:31:52.276Z,100010.53
2018-10-07T04:32:23.388Z,100006.17
2018-10-07T04:32:54.521Z,100009.60
2018-10-07T04:33:25.652Z,100005.73
2018-10-07T04:33:56.821Z,100009.14
2018-10-07T04:34:27.932Z,100011.27
2018-10-07T04:34:59.097Z,100007.35
2018-10-07T04:35:30.314Z,100001.31
2018-10-07T04:36:01.429Z,100007.34
2018-10-07T04:36:32.544Z,100008.59
2018-10-07T04:37:03.748Z,100008.57
2018-10-07T04:37:34.837Z,100010.66
2018-10-07T04:38:05.946Z,100004.97
2018-10-07T04:38:37.079Z,100003.25
2018-10-07T04:39:08.257Z,100007.52
2018-10-07T04:39:39.533Z,100000.13
2018-10-07T04:40:10.679Z,100006.10
2018-10-07T04:40:41.865Z,100001.28
2018-10-07T04:41:12.995Z,100007.31
2018-10-07T04:41:44.108Z,100005.48
2018-10-07T04:42:15.205Z,99998.49
2018-10-07T04:42:46.351Z,100003.16
2018-10-07T04:43:17.468Z,100001.39
2018-10-07T04:43:48.601Z,100002.27
2018-10-07T04:44:19.736Z,100000.47
2018-10-07T04:44:50.865Z,100002.93
2018-10-07T04:45:22.010Z,99997.20
2018-10-07T04:45:53.157Z,99997.52
2018-10-07T04:46:24.295Z,100009.95
2018-10-07T04:46:55.512Z,100006.36
2018-10-07T04:47:26.663Z,100005.78
2018-10-07T04:47:57.801Z,100004.78
2018-10-07T04:48:28.979Z,100010.28
2018-10-07T04:49:00.088Z,100009.73
2018-10-07T04:49:31.213Z,100007.16
2018-10-07T04:50:02.326Z,100009.19
2018-10-07T04:50:33.470Z,100008.70
2018-10-07T04:51:04.609Z,100004.23
2018-10-07T04:51:35.728Z,100010.61
2018-10-07T04:52:06.862Z,100010.22
2018-10-07T04:52:37.982Z,100004.52
2018-10-07T04:53:09.106Z,100006.60
2018-10-07T04:53:40.282Z,100006.04
2018-10-07T04:54:11.427Z,100002.91
2018-10-07T04:54:42.618Z,100003.64
2018-10-07T04:55:13.733Z,100001.39
2018-10-07T04:55:44.877Z,100003.91
2018-10-07T04:56:15.989Z,100001.16
2018-10-07T04:56:47.209Z,100004.92
2018-10-07T04:57:18.466Z,100004.80
2018-10-07T04:57:49.597Z,100004.69
2018-10-07T04:58:20.747Z,100004.15
2018-10-07T04:58:51.905Z,100003.19
2018-10-07T04:59:23.119Z,100005.63
2018-10-07T04:59:56.757Z,100005.12
2018-10-07T05:00:27.943Z,100002.39
2018-10-07T05:00:59.082Z,100002.31
2018-10-07T05:01:30.212Z,100001.47
2018-10-07T05:02:01.328Z,100003.58
2018-10-07T05:02:32.505Z,100005.67
2018-10-07T05:03:03.653Z,100002.57
2018-10-07T05:03:34.785Z,100004.75
2018-10-07T05:04:05.974Z,100008.55
2018-10-07T05:04:37.120Z,99996.02
2018-10-07T05:05:08.316Z,100006.44
2018-10-07T05:05:39.471Z,100006.91
2018-10-07T05:06:10.611Z,100004.76
2018-10-07T05:06:41.813Z,100005.18
2018-10-07T05:07:12.956Z,99961.85
2018-10-07T05:07:44.072Z,99517.65
2018-10-07T05:08:15.300Z,100003.36
2018-10-07T05:08:46.456Z,100008.54
2018-10-07T05:09:17.651Z,100008.53
2018-10-07T05:09:48.789Z,100007.28
2018-10-07T05:10:19.998Z,100009.08
2018-10-07T05:10:51.175Z,100014.68
2018-10-07T05:11:22.363Z,100008.66
2018-10-07T05:11:53.678Z,100008.28
2018-10-07T05:12:24.857Z,100016.52
2018-10-07T05:12:55.969Z,100014.76
2018-10-07T05:13:30.137Z,100004.75
2018-10-07T05:14:01.250Z,100012.15
2018-10-07T05:14:32.362Z,100008.05
2018-10-07T05:15:03.473Z,100012.97
2018-10-07T05:15:35.411Z,100013.01
2018-10-07T05:16:06.553Z,100012.97
2018-10-07T05:16:37.657Z,100012.43
2018-10-07T05:17:08.792Z,100014.66
2018-10-07T05:17:40.034Z,100014.66
2018-10-07T05:18:11.142Z,100010.32
2018-10-07T05:18:42.296Z,100009.98
2018-10-07T05:19:13.500Z,100006.48
2018-10-07T05:19:44.631Z,100009.67
2018-10-07T05:20:15.784Z,100010.48
2018-10-07T05:20:47.006Z,100008.37
2018-10-07T05:21:18.096Z,100007.83
2018-10-07T05:21:49.222Z,100008.67
2018-10-07T05:22:20.339Z,100016.49
2018-10-07T05:22:51.438Z,100008.67
2018-10-07T05:23:22.618Z,100009.56
2018-10-07T05:23:53.749Z,100006.53
2018-10-07T05:24:24.892Z,100012.70
2018-10-07T05:24:56.005Z,100006.68
2018-10-07T05:25:27.183Z,100005.34
2018-10-07T05:25:58.309Z,100007.83
2018-10-07T05:26:29.439Z,100003.84
2018-10-07T05:27:00.553Z,100009.36
2018-10-07T05:27:31.766Z,100005.41
2018-10-07T05:28:02.935Z,100012.31
2018-10-07T05:28:34.041Z,100006.22
2018-10-07T05:29:05.156Z,100009.70
2018-10-07T05:29:36.354Z,100010.97
2018-10-07T05:30:07.466Z,100009.20
2018-10-07T05:30:38.611Z,100011.73
2018-10-07T05:31:09.762Z,100015.17
2018-10-07T05:31:40.923Z,100013.80
2018-10-07T05:32:12.063Z,100016.32
2018-10-07T05:32:43.224Z,100010.60
2018-10-07T05:33:14.338Z,100018.34
2018-10-07T05:33:45.464Z,100018.34
2018-10-07T05:34:16.578Z,100013.13
2018-10-07T05:34:47.753Z,100020.48
2018-10-07T05:35:18.890Z,100013.89
2018-10-07T05:35:49.998Z,100016.49
2018-10-07T05:36:21.111Z,100017.30
2018-10-07T05:36:52.208Z,100016.87
2018-10-07T05:37:23.313Z,100014.68
2018-10-07T05:37:54.456Z,100018.13
2018-10-07T05:38:25.595Z,100011.57
2018-10-07T05:38:56.705Z,100016.79
2018-10-07T05:39:27.819Z,100016.79
2018-10-07T05:39:58.943Z,100016.79
2018-10-07T05:40:30.063Z,100015.45
2018-10-07T05:41:01.175Z,100016.32
2018-10-07T05:41:32.333Z,100015.86
2018-10-07T05:42:03.463Z,100016.73
2018-10-07T05:42:34.568Z,100018.89
2018-10-07T05:43:05.740Z,100020.61
2018-10-07T05:43:36.856Z,100019.35
2018-10-07T05:44:08.024Z,100018.98
2018-10-07T05:44:39.155Z,100017.29
2018-10-07T05:45:10.250Z,100017.29
2018-10-07T05:45:41.358Z,100018.09
2018-10-07T05:46:12.498Z,100017.55
2018-10-07T05:46:43.639Z,100019.65
2018-10-07T05:47:14.741Z,100023.13
2018-10-07T05:47:45.845Z,100017.50
2018-10-07T05:48:16.958Z,100017.04
2018-10-07T05:48:48.095Z,100014.39
2018-10-07T05:49:19.237Z,100013.08
2018-10-07T05:49:50.406Z,100016.11
2018-10-07T05:50:21.599Z,100017.00
2018-10-07T05:50:52.783Z,100012.70
2018-10-07T05:51:24.000Z,100020.03
2018-10-07T05:51:55.110Z,100014.89
2018-10-07T05:52:26.238Z,100018.84
2018-10-07T05:52:57.347Z,100010.61
2018-10-07T05:53:28.455Z,100014.52
2018-10-07T05:54:46.674Z,100012.66
2018-10-07T05:55:17.817Z,100013.83
2018-10-07T05:55:49.040Z,100013.79
2018-10-07T05:56:20.115Z,100011.60
2018-10-07T05:56:51.268Z,100011.60